Dobbin, Texas
Current Conditions -  °F | °C
As of 2:53 AM on Thursday 23 Oct 2014 (Local Time) from KCXO Reporting Station
Clear Clear  
Wind Chill: 62°   Ceiling: Unl
Heat Index: 62°   Visibility: 10mi
Dew Point: 55°   Wind: 0mph
Humidity: 78%   Direction: NA
Pressure: 30.11"   Gusts: NA
Location:  30.37°N, 95.78°W
Report Text: KCXO 230753Z AUTO 00000KT 10SM CLR 17/13 A3011 RMK AO2 SLP191 T01670128
Loading
Personal Weather Stations






























Interactive Weather Map New forecast layout! Learn more

10-Day Weather Forecast

Advertisements
Track Severe Weather on mobile